createdAt,value
2023-03-10T00:00:49.004Z,15.41
2023-03-10T00:05:52.202Z,15.45
2023-03-10T00:10:56.845Z,15.39
2023-03-10T00:16:00.110Z,15.35
2023-03-10T00:21:03.387Z,15.34
2023-03-10T00:26:08.314Z,15.35
2023-03-10T00:31:12.766Z,15.26
2023-03-10T00:36:17.890Z,15.33
2023-03-10T00:41:24.327Z,15.35
2023-03-10T00:46:28.244Z,15.29
2023-03-10T00:51:31.489Z,15.26
2023-03-10T00:56:36.064Z,15.24
2023-03-10T01:01:41.473Z,15.16
2023-03-10T01:06:47.635Z,15.12
2023-03-10T01:11:52.244Z,15.13
2023-03-10T01:16:55.405Z,15.09
2023-03-10T01:21:58.592Z,15.03
2023-03-10T01:27:03.177Z,15.01
2023-03-10T01:32:07.078Z,15.04
2023-03-10T01:37:10.250Z,15.04
2023-03-10T01:42:14.816Z,15.02
2023-03-10T01:47:17.967Z,14.99
2023-03-10T01:52:24.591Z,15.01
2023-03-10T01:57:33.672Z,14.91
2023-03-10T02:02:38.901Z,14.88
2023-03-10T02:07:44.453Z,14.81
2023-03-10T02:12:49.005Z,14.82
2023-03-10T02:17:54.623Z,14.76
2023-03-10T02:22:57.786Z,14.82
2023-03-10T02:28:02.491Z,14.82
2023-03-10T02:33:09.104Z,14.83
2023-03-10T02:38:12.295Z,14.83
2023-03-10T02:43:20.213Z,14.85
2023-03-10T02:48:28.344Z,14.80
2023-03-10T02:53:31.848Z,14.79
2023-03-10T02:58:37.739Z,14.75
2023-03-10T03:03:41.245Z,14.79
2023-03-10T03:08:44.461Z,14.76
2023-03-10T03:13:49.063Z,14.73
2023-03-10T03:18:52.212Z,14.68
2023-03-10T03:23:55.464Z,14.73
2023-03-10T03:29:00.450Z,14.72
2023-03-10T03:34:04.579Z,14.75
2023-03-10T03:39:07.767Z,14.67
2023-03-10T03:44:12.311Z,14.66
2023-03-10T03:49:15.452Z,14.63
2023-03-10T03:54:18.558Z,14.65
2023-03-10T03:59:23.192Z,14.65
2023-03-10T04:04:26.356Z,14.63
2023-03-10T04:09:30.192Z,14.59
2023-03-10T04:14:36.010Z,14.52
2023-03-10T04:19:39.126Z,14.55
2023-03-10T04:24:42.270Z,14.59
2023-03-10T04:29:46.799Z,14.58
2023-03-10T04:34:49.972Z,14.65
2023-03-10T04:39:53.086Z,14.69
2023-03-10T04:44:57.772Z,14.62
2023-03-10T04:50:00.913Z,14.61
2023-03-10T04:55:04.243Z,14.59
2023-03-10T05:00:12.662Z,14.47
2023-03-10T05:05:15.953Z,14.38
2023-03-10T05:10:19.436Z,14.49
2023-03-10T05:15:24.105Z,14.38
2023-03-10T05:20:27.288Z,14.42
2023-03-10T05:25:30.726Z,14.51
2023-03-10T05:30:35.296Z,14.56
2023-03-10T05:35:39.163Z,14.46
2023-03-10T05:40:43.186Z,14.45
2023-03-10T05:45:56.378Z,14.51
2023-03-10T05:51:01.064Z,14.54
2023-03-10T05:56:07.607Z,14.59
2023-03-10T06:01:12.312Z,14.69
2023-03-10T06:06:15.460Z,14.72
2023-03-10T06:11:18.623Z,14.45
2023-03-10T06:16:23.411Z,14.35
2023-03-10T06:21:28.422Z,14.42
2023-03-10T06:26:31.306Z,14.43
2023-03-10T06:31:36.469Z,14.19
2023-03-10T06:36:40.548Z,14.14
2023-03-10T06:41:43.727Z,14.19
2023-03-10T06:46:48.556Z,14.15
2023-03-10T06:51:51.724Z,14.13
2023-03-10T06:56:54.924Z,13.96
2023-03-10T07:01:59.517Z,13.96
2023-03-10T07:07:02.640Z,13.99
2023-03-10T07:12:06.406Z,14.05
2023-03-10T07:17:11.062Z,14.07
2023-03-10T07:22:14.226Z,14.14
2023-03-10T07:27:17.412Z,14.03
2023-03-10T07:32:21.965Z,14.05
2023-03-10T07:37:25.161Z,14.24
2023-03-10T07:42:28.390Z,14.31
2023-03-10T07:47:33.172Z,14.18
2023-03-10T07:52:36.336Z,14.26
2023-03-10T07:57:39.472Z,14.45
2023-03-10T08:02:44.400Z,14.57
2023-03-10T08:07:47.271Z,14.36
2023-03-10T08:12:50.414Z,14.41
2023-03-10T08:17:55.002Z,14.65
2023-03-10T08:22:58.151Z,14.65
2023-03-10T08:28:01.310Z,14.61
2023-03-10T08:33:07.771Z,14.87
2023-03-10T08:38:10.968Z,14.95
2023-03-10T08:43:14.104Z,15.38
2023-03-10T08:48:18.647Z,15.38
2023-03-10T08:53:21.824Z,15.28
2023-03-10T08:58:24.968Z,15.57
2023-03-10T09:03:31.569Z,15.85
2023-03-10T09:08:35.302Z,16.47
2023-03-10T09:13:39.447Z,16.68
2023-03-10T09:18:44.398Z,16.58
2023-03-10T09:23:50.174Z,16.65
2023-03-10T09:28:56.760Z,16.81
2023-03-10T09:34:01.924Z,16.74
2023-03-10T09:39:05.914Z,16.91
2023-03-10T09:44:25.334Z,16.89
2023-03-10T09:49:34.905Z,17.10
2023-03-10T09:54:47.068Z,17.66
2023-03-10T09:59:53.936Z,18.46
2023-03-10T10:05:04.043Z,18.47
2023-03-10T10:10:14.381Z,18.53
2023-03-10T10:15:21.432Z,18.25
2023-03-10T10:20:30.155Z,17.46
2023-03-10T10:25:33.865Z,17.21
2023-03-10T10:30:38.901Z,17.11
2023-03-10T10:35:46.357Z,17.99
2023-03-10T10:40:51.419Z,18.15
2023-03-10T10:45:56.366Z,18.45
2023-03-10T10:51:00.936Z,17.96
2023-03-10T10:56:05.976Z,19.46
2023-03-10T11:01:12.767Z,20.50
2023-03-10T11:06:27.275Z,22.73
2023-03-10T11:11:37.141Z,23.98
2023-03-10T11:16:50.126Z,23.89
2023-03-10T11:22:00.688Z,23.63
2023-03-10T11:27:10.548Z,21.57
2023-03-10T11:32:22.071Z,22.55
2023-03-10T11:37:34.342Z,22.00
2023-03-10T11:42:44.324Z,20.85
2023-03-10T11:47:58.350Z,19.98
2023-03-10T11:53:07.932Z,20.70
2023-03-10T11:58:22.416Z,20.62
2023-03-10T12:03:30.021Z,21.67
2023-03-10T12:08:36.349Z,21.60
2023-03-10T12:13:46.068Z,20.83
2023-03-10T12:18:49.687Z,20.22
2023-03-10T12:23:56.062Z,19.75
2023-03-10T12:29:25.396Z,19.33
2023-03-10T12:34:31.730Z,19.48
2023-03-10T12:39:41.896Z,19.12
2023-03-10T12:44:51.883Z,19.03
2023-03-10T12:49:59.355Z,18.59
2023-03-10T12:55:24.300Z,20.06
2023-03-10T13:00:36.717Z,21.20
2023-03-10T13:05:42.884Z,21.66
2023-03-10T13:10:47.838Z,20.65
2023-03-10T13:15:59.404Z,21.41
2023-03-10T13:21:02.702Z,21.23
2023-03-10T13:26:09.310Z,20.24
2023-03-10T13:31:20.711Z,19.79
2023-03-10T13:36:31.473Z,21.31
2023-03-10T13:41:37.687Z,20.84
2023-03-10T13:46:40.921Z,21.27
2023-03-10T13:51:54.534Z,21.84
2023-03-10T13:57:03.202Z,21.87
2023-03-10T14:02:14.759Z,22.41
2023-03-10T14:07:19.738Z,23.39
2023-03-10T14:12:38.709Z,22.13
2023-03-10T14:17:43.289Z,22.10
2023-03-10T14:22:46.516Z,20.96
2023-03-10T14:27:56.288Z,20.32
2023-03-10T14:33:02.054Z,19.65
2023-03-10T14:38:05.286Z,20.17
2023-03-10T14:43:16.929Z,21.52
2023-03-10T14:48:23.247Z,21.04
2023-03-10T14:53:28.355Z,19.78
2023-03-10T14:58:34.812Z,19.43
2023-03-10T15:03:37.968Z,19.62
2023-03-10T15:08:41.400Z,19.28
2023-03-10T15:13:46.061Z,18.94
2023-03-10T15:18:49.396Z,18.85
2023-03-10T15:23:52.587Z,19.07
2023-03-10T15:28:57.151Z,18.75
2023-03-10T15:34:00.008Z,19.00
2023-03-10T15:39:03.448Z,19.58
2023-03-10T15:44:08.768Z,18.95
2023-03-10T15:49:11.870Z,19.00
2023-03-10T15:54:15.009Z,18.88
2023-03-10T15:59:20.791Z,18.95
2023-03-10T16:04:24.215Z,18.76
2023-03-10T16:09:27.422Z,18.68
2023-03-10T16:14:32.163Z,18.71
2023-03-10T16:19:35.365Z,18.58
2023-03-10T16:24:38.493Z,18.61
2023-03-10T16:29:43.291Z,18.50
2023-03-10T16:34:46.703Z,18.33
2023-03-10T16:39:49.872Z,18.40
2023-03-10T16:44:56.857Z,18.19
2023-03-10T16:50:00.306Z,18.08
2023-03-10T16:55:05.214Z,17.95
2023-03-10T17:00:12.327Z,17.72
2023-03-10T17:05:15.690Z,17.73
2023-03-10T17:10:19.037Z,17.66
2023-03-10T17:15:23.606Z,17.50
2023-03-10T17:20:27.172Z,17.53
2023-03-10T17:25:30.358Z,17.55
2023-03-10T17:30:35.025Z,17.44
2023-03-10T17:35:38.878Z,17.34
2023-03-10T17:40:42.900Z,17.40
2023-03-10T17:45:57.086Z,17.53
2023-03-10T17:51:00.546Z,17.53
2023-03-10T17:56:07.979Z,17.47
2023-03-10T18:01:15.046Z,17.42
2023-03-10T18:06:20.749Z,17.42
2023-03-10T18:11:24.631Z,17.44
2023-03-10T18:16:32.704Z,17.39
2023-03-10T18:21:35.939Z,17.37
2023-03-10T18:26:43.387Z,17.31
2023-03-10T18:31:47.964Z,17.41
2023-03-10T18:36:52.016Z,17.34
2023-03-10T18:41:55.332Z,17.29
2023-03-10T18:46:59.887Z,17.37
2023-03-10T18:52:03.040Z,17.22
2023-03-10T18:57:06.304Z,17.29
2023-03-10T19:02:15.137Z,17.28
2023-03-10T19:07:20.499Z,17.27
2023-03-10T19:12:25.000Z,17.27
2023-03-10T19:17:29.573Z,17.29
2023-03-10T19:22:34.974Z,17.36
2023-03-10T19:27:40.443Z,17.33
2023-03-10T19:32:45.400Z,17.33
2023-03-10T19:37:48.515Z,17.29
2023-03-10T19:42:51.835Z,17.23
2023-03-10T19:47:58.000Z,17.16
2023-03-10T19:53:01.151Z,17.10
2023-03-10T19:58:04.317Z,16.79
2023-03-10T20:03:08.977Z,16.93
2023-03-10T20:08:11.877Z,16.87
2023-03-10T20:13:15.159Z,16.85
2023-03-10T20:18:21.234Z,16.82
2023-03-10T20:23:24.722Z,16.87
2023-03-10T20:28:27.870Z,16.89
2023-03-10T20:33:32.780Z,16.84
2023-03-10T20:38:36.009Z,16.82
2023-03-10T20:43:39.207Z,16.91
2023-03-10T20:48:43.766Z,16.78
2023-03-10T20:53:46.976Z,16.67
2023-03-10T20:58:50.159Z,16.77
2023-03-10T21:03:54.975Z,16.76
2023-03-10T21:08:58.180Z,16.78
2023-03-10T21:14:01.359Z,16.79
2023-03-10T21:19:06.781Z,16.83
2023-03-10T21:24:10.347Z,16.85
2023-03-10T21:29:13.568Z,16.76
2023-03-10T21:34:18.115Z,16.82
2023-03-10T21:39:21.465Z,16.81
2023-03-10T21:44:24.651Z,16.83
2023-03-10T21:49:29.148Z,16.80
2023-03-10T21:54:32.345Z,16.71
2023-03-10T21:59:35.480Z,16.64
2023-03-10T22:04:40.376Z,16.49
2023-03-10T22:09:43.867Z,16.52
2023-03-10T22:14:47.699Z,16.48
2023-03-10T22:19:54.901Z,16.32
2023-03-10T22:24:58.347Z,16.35
2023-03-10T22:30:01.781Z,16.33
2023-03-10T22:35:07.511Z,16.34
2023-03-10T22:40:16.313Z,16.36
2023-03-10T22:45:21.670Z,16.19
2023-03-10T22:50:28.167Z,16.17
2023-03-10T22:55:35.706Z,16.13
2023-03-10T23:00:40.626Z,16.22
2023-03-10T23:05:46.163Z,16.35
2023-03-10T23:10:49.358Z,16.18
2023-03-10T23:15:52.747Z,16.18
2023-03-10T23:20:57.442Z,16.20
2023-03-10T23:26:00.945Z,16.22
2023-03-10T23:31:04.598Z,16.20
2023-03-10T23:36:11.832Z,16.27
2023-03-10T23:41:15.317Z,16.24
2023-03-10T23:46:18.568Z,16.12
2023-03-10T23:51:23.134Z,16.25
2023-03-10T23:56:26.288Z,16.31
